sensor_id;sensor_type;location;lat;lon;timestamp;pressure;altitude;pressure_sealevel;temperature;humidity
29331;BME280;16331;52.528;13.342;2022-12-18T00:01:33;154674.59;;;-3.94;100.00
29331;BME280;16331;52.528;13.342;2022-12-18T00:04:01;154627.25;;;-4.11;100.00
29331;BME280;16331;52.528;13.342;2022-12-18T00:06:30;154569.09;;;-4.33;100.00
29331;BME280;16331;52.528;13.342;2022-12-18T00:09:04;154577.19;;;-4.30;100.00
29331;BME280;16331;52.528;13.342;2022-12-18T00:11:33;154573.13;;;-4.31;100.00
29331;BME280;16331;52.528;13.342;2022-12-18T00:14:00;154585.28;;;-4.27;100.00
29331;BME280;16331;52.528;13.342;2022-12-18T00:16:30;154574.50;;;-4.31;100.00
29331;BME280;16331;52.528;13.342;2022-12-18T00:18:59;154570.44;;;-4.32;100.00
29331;BME280;16331;52.528;13.342;2022-12-18T00:21:27;154574.50;;;-4.31;100.00
29331;BME280;16331;52.528;13.342;2022-12-18T00:23:54;154567.72;;;-4.33;100.00
29331;BME280;16331;52.528;13.342;2022-12-18T00:26:26;154634.00;;;-4.09;100.00
29331;BME280;16331;52.528;13.342;2022-12-18T00:28:54;154579.94;;;-4.29;100.00
29331;BME280;16331;52.528;13.342;2022-12-18T00:31:24;154477.16;;;-4.67;100.00
29331;BME280;16331;52.528;13.342;2022-12-18T00:33:58;154433.91;;;-4.83;100.00
29331;BME280;16331;52.528;13.342;2022-12-18T00:36:30;154455.53;;;-4.75;100.00
29331;BME280;16331;52.528;13.342;2022-12-18T00:38:58;154443.38;;;-4.80;100.00
29331;BME280;16331;52.528;13.342;2022-12-18T00:41:26;154460.94;;;-4.73;100.00
29331;BME280;16331;52.528;13.342;2022-12-18T00:44:15;154481.19;;;-4.66;100.00
29331;BME280;16331;52.528;13.342;2022-12-18T00:46:42;154460.94;;;-4.73;100.00
29331;BME280;16331;52.528;13.342;2022-12-18T00:49:11;154501.50;;;-4.58;100.00
29331;BME280;16331;52.528;13.342;2022-12-18T00:51:41;154467.72;;;-4.71;100.00
29331;BME280;16331;52.528;13.342;2022-12-18T00:54:08;154496.09;;;-4.60;100.00
29331;BME280;16331;52.528;13.342;2022-12-18T00:56:38;154473.09;;;-4.69;100.00
29331;BME280;16331;52.528;13.342;2022-12-18T00:59:06;154550.13;;;-4.40;100.00
29331;BME280;16331;52.528;13.342;2022-12-18T01:01:34;154604.25;;;-4.20;100.00
29331;BME280;16331;52.528;13.342;2022-12-18T01:04:03;154454.22;;;-4.76;100.00
29331;BME280;16331;52.528;13.342;2022-12-18T01:06:31;154425.78;;;-4.86;100.00
29331;BME280;16331;52.528;13.342;2022-12-18T01:08:58;154423.13;;;-4.87;100.00
29331;BME280;16331;52.528;13.342;2022-12-18T01:11:25;154398.81;;;-4.96;100.00
29331;BME280;16331;52.528;13.342;2022-12-18T01:13:54;154417.69;;;-4.89;100.00
29331;BME280;16331;52.528;13.342;2022-12-18T01:16:23;154439.31;;;-4.81;100.00
29331;BME280;16331;52.528;13.342;2022-12-18T01:18:54;154452.84;;;-4.76;100.00
29331;BME280;16331;52.528;13.342;2022-12-18T01:21:23;154509.63;;;-4.55;100.00
29331;BME280;16331;52.528;13.342;2022-12-18T01:23:53;154577.19;;;-4.30;100.00
29331;BME280;16331;52.528;13.342;2022-12-18T01:26:21;154563.66;;;-4.35;100.00
29331;BME280;16331;52.528;13.342;2022-12-18T01:28:48;154567.72;;;-4.33;100.00
29331;BME280;16331;52.528;13.342;2022-12-18T01:31:19;154460.94;;;-4.73;100.00
29331;BME280;16331;52.528;13.342;2022-12-18T01:33:45;154474.47;;;-4.68;100.00
29331;BME280;16331;52.528;13.342;2022-12-18T01:36:19;154471.78;;;-4.69;100.00
29331;BME280;16331;52.528;13.342;2022-12-18T01:38:47;154521.78;;;-4.51;100.00
29331;BME280;16331;52.528;13.342;2022-12-18T01:41:20;154531.25;;;-4.47;100.00
29331;BME280;16331;52.528;13.342;2022-12-18T01:43:53;154521.78;;;-4.51;100.00
29331;BME280;16331;52.528;13.342;2022-12-18T01:46:22;154506.88;;;-4.56;100.00
29331;BME280;16331;52.528;13.342;2022-12-18T01:48:54;154582.59;;;-4.28;100.00
29331;BME280;16331;52.528;13.342;2022-12-18T01:51:25;154632.63;;;-4.09;100.00
29331;BME280;16331;52.528;13.342;2022-12-18T01:54:00;154596.13;;;-4.23;100.00
29331;BME280;16331;52.528;13.342;2022-12-18T01:56:26;154582.59;;;-4.28;100.00
29331;BME280;16331;52.528;13.342;2022-12-18T01:59:00;154581.25;;;-4.28;100.00
29331;BME280;16331;52.528;13.342;2022-12-18T02:01:30;154604.25;;;-4.20;100.00
29331;BME280;16331;52.528;13.342;2022-12-18T02:04:22;154551.50;;;-4.39;100.00
29331;BME280;16331;52.528;13.342;2022-12-18T02:12:33;154528.50;;;-4.48;100.00
29331;BME280;16331;52.528;13.342;2022-12-18T02:17:37;154560.97;;;-4.36;100.00
29331;BME280;16331;52.528;13.342;2022-12-18T02:20:17;154555.56;;;-4.38;100.00
29331;BME280;16331;52.528;13.342;2022-12-18T02:26:04;154479.88;;;-4.66;100.00
29331;BME280;16331;52.528;13.342;2022-12-18T02:28:49;154510.97;;;-4.55;100.00
29331;BME280;16331;52.528;13.342;2022-12-18T02:31:28;154451.47;;;-4.77;100.00
29331;BME280;16331;52.528;13.342;2022-12-18T02:34:01;154506.88;;;-4.56;100.00
29331;BME280;16331;52.528;13.342;2022-12-18T02:36:31;154548.81;;;-4.40;100.00
29331;BME280;16331;52.528;13.342;2022-12-18T02:39:02;154531.25;;;-4.47;100.00
29331;BME280;16331;52.528;13.342;2022-12-18T02:41:31;154513.66;;;-4.54;100.00
29331;BME280;16331;52.528;13.342;2022-12-18T02:44:11;154486.63;;;-4.64;100.00
29331;BME280;16331;52.528;13.342;2022-12-18T02:46:39;154501.50;;;-4.58;100.00
29331;BME280;16331;52.528;13.342;2022-12-18T02:52:08;154459.56;;;-4.74;100.00
29331;BME280;16331;52.528;13.342;2022-12-18T02:57:30;154483.94;;;-4.65;100.00
29331;BME280;16331;52.528;13.342;2022-12-18T03:00:08;154474.47;;;-4.68;100.00
29331;BME280;16331;52.528;13.342;2022-12-18T03:02:45;154412.28;;;-4.91;100.00
29331;BME280;16331;52.528;13.342;2022-12-18T03:05:28;154432.59;;;-4.84;100.00
29331;BME280;16331;52.528;13.342;2022-12-18T03:07:57;154442.00;;;-4.80;100.00
29331;BME280;16331;52.528;13.342;2022-12-18T03:10:28;154429.84;;;-4.85;100.00
29331;BME280;16331;52.528;13.342;2022-12-18T03:12:58;154393.41;;;-4.98;100.00
29331;BME280;16331;52.528;13.342;2022-12-18T03:15:38;154416.31;;;-4.90;100.00
29331;BME280;16331;52.528;13.342;2022-12-18T03:18:12;154404.19;;;-4.94;100.00
29331;BME280;16331;52.528;13.342;2022-12-18T03:20:41;154390.66;;;-4.99;100.00
29331;BME280;16331;52.528;13.342;2022-12-18T03:23:16;154409.59;;;-4.92;100.00
29331;BME280;16331;52.528;13.342;2022-12-18T03:25:44;154471.78;;;-4.69;100.00
29331;BME280;16331;52.528;13.342;2022-12-18T03:28:17;154383.94;;;-5.02;100.00
29331;BME280;16331;52.528;13.342;2022-12-18T03:30:47;154323.13;;;-5.24;100.00
29331;BME280;16331;52.528;13.342;2022-12-18T03:33:27;154355.59;;;-5.12;100.00
29331;BME280;16331;52.528;13.342;2022-12-18T03:36:09;154348.81;;;-5.15;100.00
29331;BME280;16331;52.528;13.342;2022-12-18T03:38:35;154375.81;;;-5.05;100.00
29331;BME280;16331;52.528;13.342;2022-12-18T03:41:18;154406.91;;;-4.93;100.00
29331;BME280;16331;52.528;13.342;2022-12-18T03:44:05;154409.59;;;-4.92;100.00
29331;BME280;16331;52.528;13.342;2022-12-18T03:49:38;154394.72;;;-4.98;100.00
29331;BME280;16331;52.528;13.342;2022-12-18T03:55:00;154406.91;;;-4.93;100.00
29331;BME280;16331;52.528;13.342;2022-12-18T03:57:31;154350.16;;;-5.14;100.00
29331;BME280;16331;52.528;13.342;2022-12-18T04:00:04;154336.66;;;-5.19;100.00
29331;BME280;16331;52.528;13.342;2022-12-18T04:02:32;154317.72;;;-5.26;100.00
29331;BME280;16331;52.528;13.342;2022-12-18T04:05:01;154328.56;;;-5.22;100.00
29331;BME280;16331;52.528;13.342;2022-12-18T04:07:29;154405.53;;;-4.94;100.00
29331;BME280;16331;52.528;13.342;2022-12-18T04:09:56;154367.72;;;-5.08;100.00
29331;BME280;16331;52.528;13.342;2022-12-18T04:12:26;154319.09;;;-5.26;100.00
29331;BME280;16331;52.528;13.342;2022-12-18T04:14:54;154329.91;;;-5.22;100.00
29331;BME280;16331;52.528;13.342;2022-12-18T04:17:20;154319.09;;;-5.26;100.00
29331;BME280;16331;52.528;13.342;2022-12-18T04:19:48;154390.66;;;-4.99;100.00
29331;BME280;16331;52.528;13.342;2022-12-18T04:22:14;154350.16;;;-5.14;100.00
29331;BME280;16331;52.528;13.342;2022-12-18T04:24:40;154302.88;;;-5.32;100.00
29331;BME280;16331;52.528;13.342;2022-12-18T04:27:06;154285.34;;;-5.38;100.00
29331;BME280;16331;52.528;13.342;2022-12-18T04:29:33;154247.53;;;-5.52;100.00
29331;BME280;16331;52.528;13.342;2022-12-18T04:31:59;154279.91;;;-5.40;100.00
29331;BME280;16331;52.528;13.342;2022-12-18T04:34:25;154266.41;;;-5.45;100.00
29331;BME280;16331;52.528;13.342;2022-12-18T04:36:51;154258.31;;;-5.48;100.00
29331;BME280;16331;52.528;13.342;2022-12-18T04:39:17;154234.03;;;-5.57;100.00
29331;BME280;16331;52.528;13.342;2022-12-18T04:41:43;154258.31;;;-5.48;100.00
29331;BME280;16331;52.528;13.342;2022-12-18T04:44:09;154261.03;;;-5.47;100.00
29331;BME280;16331;52.528;13.342;2022-12-18T04:46:38;154259.69;;;-5.48;100.00
29331;BME280;16331;52.528;13.342;2022-12-18T04:49:04;154265.09;;;-5.46;100.00
29331;BME280;16331;52.528;13.342;2022-12-18T04:51:30;154269.13;;;-5.44;100.00
29331;BME280;16331;52.528;13.342;2022-12-18T04:53:59;154301.53;;;-5.32;100.00
29331;BME280;16331;52.528;13.342;2022-12-18T04:56:27;154269.13;;;-5.44;100.00
29331;BME280;16331;52.528;13.342;2022-12-18T04:58:57;154174.63;;;-5.79;100.00
29331;BME280;16331;52.528;13.342;2022-12-18T05:01:23;154180.00;;;-5.77;100.00
29331;BME280;16331;52.528;13.342;2022-12-18T05:03:50;154234.03;;;-5.57;100.00
29331;BME280;16331;52.528;13.342;2022-12-18T05:06:17;154246.16;;;-5.53;100.00
29331;BME280;16331;52.528;13.342;2022-12-18T05:08:43;154279.91;;;-5.40;100.00
29331;BME280;16331;52.528;13.342;2022-12-18T05:11:12;154277.22;;;-5.41;100.00
29331;BME280;16331;52.528;13.342;2022-12-18T05:13:41;154278.56;;;-5.41;100.00
29331;BME280;16331;52.528;13.342;2022-12-18T05:16:07;154223.19;;;-5.61;100.00
29331;BME280;16331;52.528;13.342;2022-12-18T05:18:34;154236.69;;;-5.56;100.00
29331;BME280;16331;52.528;13.342;2022-12-18T05:21:01;154254.25;;;-5.50;100.00
29331;BME280;16331;52.528;13.342;2022-12-18T05:23:28;154234.03;;;-5.57;100.00
29331;BME280;16331;52.528;13.342;2022-12-18T05:26:04;154216.47;;;-5.64;100.00
29331;BME280;16331;52.528;13.342;2022-12-18T05:28:33;154236.69;;;-5.56;100.00
29331;BME280;16331;52.528;13.342;2022-12-18T05:31:01;154244.78;;;-5.53;100.00
29331;BME280;16331;52.528;13.342;2022-12-18T05:33:30;154266.41;;;-5.45;100.00
29331;BME280;16331;52.528;13.342;2022-12-18T05:36:00;154212.41;;;-5.65;100.00
29331;BME280;16331;52.528;13.342;2022-12-18T05:38:31;154261.03;;;-5.47;100.00
29331;BME280;16331;52.528;13.342;2022-12-18T05:40:58;154238.06;;;-5.56;100.00
29331;BME280;16331;52.528;13.342;2022-12-18T05:43:25;154266.41;;;-5.45;100.00
29331;BME280;16331;52.528;13.342;2022-12-18T05:45:52;154247.53;;;-5.52;100.00
29331;BME280;16331;52.528;13.342;2022-12-18T05:48:21;154243.47;;;-5.54;100.00
29331;BME280;16331;52.528;13.342;2022-12-18T05:50:48;154238.06;;;-5.56;100.00
29331;BME280;16331;52.528;13.342;2022-12-18T05:53:17;154266.41;;;-5.45;100.00
29331;BME280;16331;52.528;13.342;2022-12-18T05:55:45;154316.41;;;-5.27;100.00
29331;BME280;16331;52.528;13.342;2022-12-18T05:58:18;154302.88;;;-5.32;100.00
29331;BME280;16331;52.528;13.342;2022-12-18T06:00:45;154232.66;;;-5.58;100.00
29331;BME280;16331;52.528;13.342;2022-12-18T06:03:21;154279.91;;;-5.40;100.00
29331;BME280;16331;52.528;13.342;2022-12-18T06:05:47;154317.72;;;-5.26;100.00
29331;BME280;16331;52.528;13.342;2022-12-18T06:08:13;154342.06;;;-5.17;100.00
29331;BME280;16331;52.528;13.342;2022-12-18T06:10:48;154325.81;;;-5.23;100.00
29331;BME280;16331;52.528;13.342;2022-12-18T06:13:15;154335.28;;;-5.20;100.00
29331;BME280;16331;52.528;13.342;2022-12-18T06:15:41;154355.59;;;-5.12;100.00
29331;BME280;16331;52.528;13.342;2022-12-18T06:18:07;154371.78;;;-5.06;100.00
29331;BME280;16331;52.528;13.342;2022-12-18T06:20:35;154381.25;;;-5.03;100.00
29331;BME280;16331;52.528;13.342;2022-12-18T06:23:03;154367.72;;;-5.08;100.00
29331;BME280;16331;52.528;13.342;2022-12-18T06:25:29;154366.38;;;-5.08;100.00
29331;BME280;16331;52.528;13.342;2022-12-18T06:27:55;154379.88;;;-5.03;100.00
29331;BME280;16331;52.528;13.342;2022-12-18T06:30:21;154344.75;;;-5.16;100.00
29331;BME280;16331;52.528;13.342;2022-12-18T06:32:49;154313.66;;;-5.28;100.00
29331;BME280;16331;52.528;13.342;2022-12-18T06:35:15;154338.00;;;-5.19;100.00
29331;BME280;16331;52.528;13.342;2022-12-18T06:37:42;154338.00;;;-5.19;100.00
29331;BME280;16331;52.528;13.342;2022-12-18T06:40:08;154351.53;;;-5.14;100.00
29331;BME280;16331;52.528;13.342;2022-12-18T06:42:35;154387.97;;;-5.00;100.00
29331;BME280;16331;52.528;13.342;2022-12-18T06:45:01;154308.31;;;-5.30;100.00
29331;BME280;16331;52.528;13.342;2022-12-18T06:47:27;154281.28;;;-5.40;100.00
29331;BME280;16331;52.528;13.342;2022-12-18T06:49:53;154296.09;;;-5.34;100.00
29331;BME280;16331;52.528;13.342;2022-12-18T06:52:19;154269.13;;;-5.44;100.00
29331;BME280;16331;52.528;13.342;2022-12-18T06:54:45;154255.63;;;-5.49;100.00
29331;BME280;16331;52.528;13.342;2022-12-18T06:57:12;154266.41;;;-5.45;100.00
29331;BME280;16331;52.528;13.342;2022-12-18T06:59:38;154255.63;;;-5.49;100.00
29331;BME280;16331;52.528;13.342;2022-12-18T07:02:04;154269.13;;;-5.44;100.00
29331;BME280;16331;52.528;13.342;2022-12-18T07:04:33;154261.03;;;-5.47;100.00
29331;BME280;16331;52.528;13.342;2022-12-18T07:06:59;154250.22;;;-5.51;100.00
29331;BME280;16331;52.528;13.342;2022-12-18T07:09:25;154265.09;;;-5.46;100.00
29331;BME280;16331;52.528;13.342;2022-12-18T07:11:51;154298.84;;;-5.33;100.00
29331;BME280;16331;52.528;13.342;2022-12-18T07:14:17;154319.09;;;-5.26;100.00
29331;BME280;16331;52.528;13.342;2022-12-18T07:16:44;154296.09;;;-5.34;100.00
29331;BME280;16331;52.528;13.342;2022-12-18T07:19:10;154228.59;;;-5.59;100.00
29331;BME280;16331;52.528;13.342;2022-12-18T07:21:37;154244.78;;;-5.53;100.00
29331;BME280;16331;52.528;13.342;2022-12-18T07:24:06;154248.84;;;-5.52;100.00
29331;BME280;16331;52.528;13.342;2022-12-18T07:26:32;154223.19;;;-5.61;100.00
29331;BME280;16331;52.528;13.342;2022-12-18T07:29:00;154215.09;;;-5.64;100.00
29331;BME280;16331;52.528;13.342;2022-12-18T07:31:26;154235.34;;;-5.57;100.00
29331;BME280;16331;52.528;13.342;2022-12-18T07:33:52;154283.97;;;-5.39;100.00
29331;BME280;16331;52.528;13.342;2022-12-18T07:36:19;154258.31;;;-5.48;100.00
29331;BME280;16331;52.528;13.342;2022-12-18T07:38:47;154252.91;;;-5.50;100.00
29331;BME280;16331;52.528;13.342;2022-12-18T07:41:17;154267.78;;;-5.45;100.00
29331;BME280;16331;52.528;13.342;2022-12-18T07:43:45;154281.28;;;-5.40;100.00
29331;BME280;16331;52.528;13.342;2022-12-18T07:46:12;154289.38;;;-5.37;100.00
29331;BME280;16331;52.528;13.342;2022-12-18T07:48:42;154317.72;;;-5.26;100.00
29331;BME280;16331;52.528;13.342;2022-12-18T07:51:09;154350.16;;;-5.14;100.00
29331;BME280;16331;52.528;13.342;2022-12-18T07:53:36;154385.28;;;-5.01;100.00
29331;BME280;16331;52.528;13.342;2022-12-18T07:56:23;154319.09;;;-5.26;100.00
29331;BME280;16331;52.528;13.342;2022-12-18T07:58:54;154320.47;;;-5.25;100.00
29331;BME280;16331;52.528;13.342;2022-12-18T08:01:20;154362.31;;;-5.10;100.00
29331;BME280;16331;52.528;13.342;2022-12-18T08:03:47;154355.59;;;-5.12;100.00
29331;BME280;16331;52.528;13.342;2022-12-18T08:06:14;154436.63;;;-4.82;100.00
29331;BME280;16331;52.528;13.342;2022-12-18T08:08:40;154354.22;;;-5.13;100.00
29331;BME280;16331;52.528;13.342;2022-12-18T08:11:09;154323.13;;;-5.24;100.00
29331;BME280;16331;52.528;13.342;2022-12-18T08:13:35;154305.56;;;-5.31;100.00
29331;BME280;16331;52.528;13.342;2022-12-18T08:16:06;154298.84;;;-5.33;100.00
29331;BME280;16331;52.528;13.342;2022-12-18T08:18:37;154304.19;;;-5.31;100.00
29331;BME280;16331;52.528;13.342;2022-12-18T08:21:16;154311.00;;;-5.29;100.00
29331;BME280;16331;52.528;13.342;2022-12-18T08:23:43;154375.81;;;-5.05;100.00
29331;BME280;16331;52.528;13.342;2022-12-18T08:26:13;154442.00;;;-4.80;100.00
29331;BME280;16331;52.528;13.342;2022-12-18T08:28:40;154435.25;;;-4.83;100.00
29331;BME280;16331;52.528;13.342;2022-12-18T08:31:06;154429.84;;;-4.85;100.00
29331;BME280;16331;52.528;13.342;2022-12-18T08:33:33;154460.94;;;-4.73;100.00
29331;BME280;16331;52.528;13.342;2022-12-18T08:36:01;154460.94;;;-4.73;100.00
29331;BME280;16331;52.528;13.342;2022-12-18T08:38:28;154517.72;;;-4.52;100.00
29331;BME280;16331;52.528;13.342;2022-12-18T08:41:02;154493.41;;;-4.61;100.00
29331;BME280;16331;52.528;13.342;2022-12-18T08:43:29;154485.25;;;-4.64;100.00
29331;BME280;16331;52.528;13.342;2022-12-18T08:46:14;154465.00;;;-4.72;100.00
29331;BME280;16331;52.528;13.342;2022-12-18T08:48:42;154433.91;;;-4.83;100.00
29331;BME280;16331;52.528;13.342;2022-12-18T08:51:08;154439.31;;;-4.81;100.00
29331;BME280;16331;52.528;13.342;2022-12-18T08:53:35;154415.00;;;-4.90;100.00
29331;BME280;16331;52.528;13.342;2022-12-18T08:56:02;154398.81;;;-4.96;100.00
29331;BME280;16331;52.528;13.342;2022-12-18T08:58:29;154402.88;;;-4.95;100.00
29331;BME280;16331;52.528;13.342;2022-12-18T09:01:00;154424.47;;;-4.87;100.00
29331;BME280;16331;52.528;13.342;2022-12-18T09:03:27;154447.41;;;-4.78;100.00
29331;BME280;16331;52.528;13.342;2022-12-18T09:05:53;154469.03;;;-4.70;100.00
29331;BME280;16331;52.528;13.342;2022-12-18T09:08:20;154460.94;;;-4.73;100.00
29331;BME280;16331;52.528;13.342;2022-12-18T09:10:49;154466.34;;;-4.71;100.00
29331;BME280;16331;52.528;13.342;2022-12-18T09:13:16;154452.84;;;-4.76;100.00
29331;BME280;16331;52.528;13.342;2022-12-18T09:15:47;154483.94;;;-4.65;100.00
29331;BME280;16331;52.528;13.342;2022-12-18T09:18:18;154532.56;;;-4.47;100.00
29331;BME280;16331;52.528;13.342;2022-12-18T09:20:46;154542.03;;;-4.43;100.00
29331;BME280;16331;52.528;13.342;2022-12-18T09:23:13;154477.16;;;-4.67;100.00
29331;BME280;16331;52.528;13.342;2022-12-18T09:25:40;154496.09;;;-4.60;100.00
29331;BME280;16331;52.528;13.342;2022-12-18T09:28:12;154490.66;;;-4.62;100.00
29331;BME280;16331;52.528;13.342;2022-12-18T09:30:38;154497.44;;;-4.60;100.00
29331;BME280;16331;52.528;13.342;2022-12-18T09:33:07;154498.78;;;-4.59;100.00
29331;BME280;16331;52.528;13.342;2022-12-18T09:35:41;154528.50;;;-4.48;100.00
29331;BME280;16331;52.528;13.342;2022-12-18T09:38:14;154581.25;;;-4.28;100.00
29331;BME280;16331;52.528;13.342;2022-12-18T09:40:49;154616.41;;;-4.15;100.00
29331;BME280;16331;52.528;13.342;2022-12-18T09:43:23;154573.13;;;-4.31;100.00
29331;BME280;16331;52.528;13.342;2022-12-18T09:45:55;154520.41;;;-4.51;100.00
29331;BME280;16331;52.528;13.342;2022-12-18T09:48:38;154533.94;;;-4.46;100.00
29331;BME280;16331;52.528;13.342;2022-12-18T09:51:37;154544.78;;;-4.42;100.00
29331;BME280;16331;52.528;13.342;2022-12-18T09:56:57;154521.78;;;-4.51;100.00
29331;BME280;16331;52.528;13.342;2022-12-18T09:59:35;154558.28;;;-4.37;100.00
29331;BME280;16331;52.528;13.342;2022-12-18T10:02:20;154563.66;;;-4.35;100.00
29331;BME280;16331;52.528;13.342;2022-12-18T10:05:13;154616.41;;;-4.15;100.00
29331;BME280;16331;52.528;13.342;2022-12-18T10:08:03;154577.19;;;-4.30;100.00
29331;BME280;16331;52.528;13.342;2022-12-18T10:10:49;154606.94;;;-4.19;100.00
29331;BME280;16331;52.528;13.342;2022-12-18T10:13:44;154604.25;;;-4.20;100.00
29331;BME280;16331;52.528;13.342;2022-12-18T10:22:53;154700.28;;;-3.84;100.00
29331;BME280;16331;52.528;13.342;2022-12-18T10:28:07;154696.22;;;-3.86;100.00
29331;BME280;16331;52.528;13.342;2022-12-18T10:30:59;154698.91;;;-3.85;100.00
29331;BME280;16331;52.528;13.342;2022-12-18T10:33:31;154688.06;;;-3.89;100.00
29331;BME280;16331;52.528;13.342;2022-12-18T10:36:04;154662.38;;;-3.98;100.00
29331;BME280;16331;52.528;13.342;2022-12-18T10:38:52;154658.31;;;-4.00;100.00
29331;BME280;16331;52.528;13.342;2022-12-18T10:44:22;154671.84;;;-3.95;100.00
29331;BME280;16331;52.528;13.342;2022-12-18T10:47:17;154708.38;;;-3.81;100.00
29331;BME280;16331;52.528;13.342;2022-12-18T10:49:56;154711.06;;;-3.80;100.00
29331;BME280;16331;52.528;13.342;2022-12-18T10:52:26;154725.97;;;-3.75;100.00
29331;BME280;16331;52.528;13.342;2022-12-18T10:55:31;154738.16;;;-3.70;100.00
29331;BME280;16331;52.528;13.342;2022-12-18T10:58:24;154712.44;;;-3.80;100.00
29331;BME280;16331;52.528;13.342;2022-12-18T11:01:12;154734.09;;;-3.72;100.00
29331;BME280;16331;52.528;13.342;2022-12-18T11:03:46;154801.72;;;-3.47;100.00
29331;BME280;16331;52.528;13.342;2022-12-18T11:06:19;154840.97;;;-3.32;100.00
29331;BME280;16331;52.528;13.342;2022-12-18T11:09:28;154880.22;;;-3.18;100.00
29331;BME280;16331;52.528;13.342;2022-12-18T11:11:56;154941.16;;;-2.95;100.00
29331;BME280;16331;52.528;13.342;2022-12-18T11:16:59;154975.00;;;-2.82;100.00
29331;BME280;16331;52.528;13.342;2022-12-18T11:19:32;154935.72;;;-2.97;100.00
29331;BME280;16331;52.528;13.342;2022-12-18T11:22:01;154888.34;;;-3.15;100.00
29331;BME280;16331;52.528;13.342;2022-12-18T11:24:38;154858.56;;;-3.26;100.00
29331;BME280;16331;52.528;13.342;2022-12-18T11:27:06;154923.56;;;-3.02;100.00
29331;BME280;16331;52.528;13.342;2022-12-18T11:29:42;154919.50;;;-3.03;100.00
29331;BME280;16331;52.528;13.342;2022-12-18T11:38:21;154896.47;;;-3.12;100.00
29331;BME280;16331;52.528;13.342;2022-12-18T11:43:54;154988.56;;;-2.77;100.00
29331;BME280;16331;52.528;13.342;2022-12-18T11:46:46;154947.91;;;-2.92;100.00
29331;BME280;16331;52.528;13.342;2022-12-18T11:49:26;154910.00;;;-3.07;100.00
29331;BME280;16331;52.528;13.342;2022-12-18T11:52:24;154937.09;;;-2.97;100.00
29331;BME280;16331;52.528;13.342;2022-12-18T11:54:59;154893.78;;;-3.13;100.00
29331;BME280;16331;52.528;13.342;2022-12-18T11:57:38;154862.63;;;-3.24;100.00
29331;BME280;16331;52.528;13.342;2022-12-18T12:00:20;154881.59;;;-3.17;100.00
29331;BME280;16331;52.528;13.342;2022-12-18T12:03:14;154851.84;;;-3.28;100.00
29331;BME280;16331;52.528;13.342;2022-12-18T12:20:59;154899.19;;;-3.11;100.00
29331;BME280;16331;52.528;13.342;2022-12-18T12:29:44;154939.78;;;-2.96;100.00
29331;BME280;16331;52.528;13.342;2022-12-18T12:41:02;154969.56;;;-2.84;100.00
29331;BME280;16331;52.528;13.342;2022-12-18T12:43:41;154901.88;;;-3.10;100.00
29331;BME280;16331;52.528;13.342;2022-12-18T12:46:11;154968.25;;;-2.85;100.00
29331;BME280;16331;52.528;13.342;2022-12-18T12:48:50;155012.91;;;-2.68;100.00
29331;BME280;16331;52.528;13.342;2022-12-18T12:51:27;154975.00;;;-2.82;100.00
29331;BME280;16331;52.528;13.342;2022-12-18T12:53:56;154953.34;;;-2.90;100.00
29331;BME280;16331;52.528;13.342;2022-12-18T12:56:30;154950.66;;;-2.91;100.00
29331;BME280;16331;52.528;13.342;2022-12-18T13:02:10;154961.44;;;-2.87;100.00
29331;BME280;16331;52.528;13.342;2022-12-18T13:07:51;155004.78;;;-2.71;100.00
29331;BME280;16331;52.528;13.342;2022-12-18T13:10:42;154987.19;;;-2.78;100.00
29331;BME280;16331;52.528;13.342;2022-12-18T13:13:13;154922.19;;;-3.02;100.00
29331;BME280;16331;52.528;13.342;2022-12-18T13:16:07;154897.84;;;-3.11;100.00
29331;BME280;16331;52.528;13.342;2022-12-18T13:18:36;154926.25;;;-3.01;100.00
29331;BME280;16331;52.528;13.342;2022-12-18T13:21:32;154912.69;;;-3.06;100.00
29331;BME280;16331;52.528;13.342;2022-12-18T13:24:16;154893.78;;;-3.13;100.00
29331;BME280;16331;52.528;13.342;2022-12-18T13:26:52;154973.63;;;-2.83;100.00
29331;BME280;16331;52.528;13.342;2022-12-18T13:29:45;155003.41;;;-2.72;100.00
29331;BME280;16331;52.528;13.342;2022-12-18T13:32:24;155034.56;;;-2.60;100.00
29331;BME280;16331;52.528;13.342;2022-12-18T13:38:00;155012.91;;;-2.68;100.00
29331;BME280;16331;52.528;13.342;2022-12-18T13:43:53;154991.25;;;-2.76;100.00
29331;BME280;16331;52.528;13.342;2022-12-18T13:46:49;154901.88;;;-3.10;100.00
29331;BME280;16331;52.528;13.342;2022-12-18T13:49:42;154880.22;;;-3.18;100.00
29331;BME280;16331;52.528;13.342;2022-12-18T13:52:40;154893.78;;;-3.13;100.00
29331;BME280;16331;52.528;13.342;2022-12-18T13:55:18;154864.00;;;-3.24;100.00
29331;BME280;16331;52.528;13.342;2022-12-18T13:57:46;154869.38;;;-3.22;100.00
29331;BME280;16331;52.528;13.342;2022-12-18T14:00:29;154908.63;;;-3.07;100.00
29331;BME280;16331;52.528;13.342;2022-12-18T14:03:28;154951.97;;;-2.91;100.00
29331;BME280;16331;52.528;13.342;2022-12-18T14:06:25;154993.97;;;-2.75;100.00
29331;BME280;16331;52.528;13.342;2022-12-18T14:08:54;154972.31;;;-2.83;100.00
29331;BME280;16331;52.528;13.342;2022-12-18T14:11:23;154985.81;;;-2.78;100.00
29331;BME280;16331;52.528;13.342;2022-12-18T14:13:50;155018.34;;;-2.66;100.00
29331;BME280;16331;52.528;13.342;2022-12-18T14:16:17;154980.44;;;-2.80;100.00
29331;BME280;16331;52.528;13.342;2022-12-18T14:18:55;154923.56;;;-3.02;100.00
29331;BME280;16331;52.528;13.342;2022-12-18T14:21:25;154927.63;;;-3.00;100.00
29331;BME280;16331;52.528;13.342;2022-12-18T14:24:15;154960.09;;;-2.88;100.00
29331;BME280;16331;52.528;13.342;2022-12-18T14:26:42;154928.97;;;-3.00;100.00
29331;BME280;16331;52.528;13.342;2022-12-18T14:29:44;154853.16;;;-3.28;100.00